createdAt,value
2022-08-17T03:03:02.637Z,21.20
2022-08-17T03:05:33.030Z,21.20
2022-08-17T03:08:01.092Z,21.10
2022-08-17T03:10:29.843Z,21.10
2022-08-17T03:13:01.602Z,21.10
2022-08-17T03:15:31.957Z,21.10
2022-08-17T03:18:02.249Z,20.90
2022-08-17T03:20:32.273Z,20.90
2022-08-17T03:23:01.978Z,20.80
2022-08-17T03:25:33.381Z,20.80
2022-08-17T03:28:02.642Z,20.90
2022-08-17T03:30:30.975Z,20.90
2022-08-17T03:33:02.399Z,20.90
2022-08-17T03:35:32.561Z,20.80
2022-08-17T03:38:01.366Z,20.70
2022-08-17T03:40:55.579Z,20.70
2022-08-17T03:43:19.790Z,20.80
2022-08-17T03:46:05.885Z,20.90
2022-08-17T03:48:57.856Z,20.90
2022-08-17T03:51:43.160Z,21.00
2022-08-17T03:54:29.603Z,21.10
2022-08-17T03:57:05.059Z,21.10
2022-08-17T03:59:33.827Z,21.10
2022-08-17T04:02:07.394Z,21.10
2022-08-17T04:04:37.270Z,21.20
2022-08-17T04:07:05.680Z,21.00
2022-08-17T04:09:33.578Z,20.90
2022-08-17T04:12:04.903Z,20.90
2022-08-17T04:14:53.782Z,20.90
2022-08-17T04:17:24.744Z,21.00
2022-08-17T04:19:54.605Z,21.00
2022-08-17T04:22:32.537Z,20.90
2022-08-17T04:25:08.529Z,20.70
2022-08-17T04:27:36.933Z,20.70
2022-08-17T04:30:07.846Z,20.60
2022-08-17T04:33:03.874Z,20.60
2022-08-17T04:35:42.011Z,20.60
2022-08-17T04:38:12.108Z,20.40
2022-08-17T04:40:57.811Z,20.30
2022-08-17T04:43:26.707Z,20.30
2022-08-17T04:45:57.361Z,20.20
2022-08-17T04:48:35.346Z,20.20
2022-08-17T04:51:10.372Z,20.20
2022-08-17T04:53:39.703Z,20.20
2022-08-17T04:56:16.155Z,20.20
2022-08-17T04:58:46.374Z,20.40
2022-08-17T05:01:14.647Z,20.40
2022-08-17T05:03:42.936Z,20.50
2022-08-17T05:06:12.188Z,20.60
2022-08-17T05:08:40.558Z,20.50
2022-08-17T05:11:08.892Z,20.50
2022-08-17T05:13:36.770Z,20.50
2022-08-17T05:16:06.170Z,20.50
2022-08-17T05:18:34.178Z,20.40
2022-08-17T05:21:03.576Z,20.40
2022-08-17T05:23:42.078Z,20.40
2022-08-17T05:26:15.211Z,20.30
2022-08-17T05:28:54.972Z,20.20
2022-08-17T05:31:25.668Z,20.30
2022-08-17T05:33:53.874Z,20.40
2022-08-17T05:36:41.831Z,20.30
2022-08-17T05:39:16.545Z,20.30
2022-08-17T05:41:47.394Z,20.50
2022-08-17T05:44:15.772Z,20.70
2022-08-17T05:46:48.175Z,20.70
2022-08-17T05:49:18.683Z,20.80
2022-08-17T05:52:05.853Z,20.70
2022-08-17T05:54:45.049Z,20.60
2022-08-17T05:57:30.443Z,20.60
2022-08-17T06:00:06.356Z,20.70
2022-08-17T06:02:51.583Z,20.90
2022-08-17T06:05:40.989Z,20.90
2022-08-17T06:08:17.544Z,20.90
2022-08-17T06:10:56.963Z,21.00
2022-08-17T06:13:39.785Z,20.90
2022-08-17T06:16:33.019Z,20.90
2022-08-17T06:19:03.126Z,21.00
2022-08-17T06:21:36.939Z,21.20
2022-08-17T06:24:16.515Z,21.20
2022-08-17T06:26:46.670Z,21.30
2022-08-17T06:29:29.298Z,21.30
2022-08-17T06:31:57.265Z,21.40
2022-08-17T06:34:25.319Z,21.60
2022-08-17T06:37:00.974Z,21.60
2022-08-17T06:39:41.827Z,21.60
2022-08-17T06:43:04.073Z,21.70
2022-08-17T06:45:11.451Z,21.90
2022-08-17T06:47:52.065Z,22.10
2022-08-17T06:50:27.190Z,22.20
2022-08-17T06:52:58.835Z,22.30
2022-08-17T06:55:35.794Z,22.40
2022-08-17T06:58:16.641Z,22.50
2022-08-17T07:00:48.023Z,22.50
2022-08-17T07:03:27.431Z,22.60
2022-08-17T07:05:59.815Z,22.70
2022-08-17T07:08:39.237Z,22.70
2022-08-17T07:11:12.995Z,22.70
2022-08-17T07:13:51.517Z,22.80
2022-08-17T07:16:25.386Z,22.70
2022-08-17T07:18:55.488Z,22.80
2022-08-17T07:21:38.428Z,22.80
2022-08-17T07:24:30.292Z,22.80
2022-08-17T07:27:07.336Z,22.90
2022-08-17T07:29:41.032Z,23.00
2022-08-17T07:32:10.967Z,23.10
2022-08-17T07:35:10.790Z,23.10
2022-08-17T07:37:40.655Z,23.10
2022-08-17T07:40:38.544Z,23.10
2022-08-17T07:43:23.250Z,23.20
2022-08-17T07:46:32.892Z,23.10
2022-08-17T07:49:20.710Z,23.10
2022-08-17T07:52:47.660Z,23.20
2022-08-17T07:54:48.924Z,23.20
2022-08-17T07:57:35.318Z,23.20
2022-08-17T08:00:19.661Z,23.20
2022-08-17T08:03:12.251Z,23.20
2022-08-17T08:05:54.224Z,23.10
2022-08-17T08:08:28.184Z,23.10
2022-08-17T08:11:02.890Z,23.30
2022-08-17T08:13:32.131Z,23.30
2022-08-17T08:16:19.809Z,23.40
2022-08-17T08:18:55.317Z,23.50
2022-08-17T08:21:36.233Z,23.40
2022-08-17T08:24:21.514Z,23.10
2022-08-17T08:26:58.986Z,23.00
2022-08-17T08:29:35.546Z,23.10
2022-08-17T08:32:12.202Z,23.30
2022-08-17T08:35:02.471Z,23.40
2022-08-17T08:37:43.630Z,23.50
2022-08-17T08:40:32.323Z,23.50
2022-08-17T08:43:10.874Z,23.60
2022-08-17T08:45:46.855Z,23.80
2022-08-17T08:48:56.225Z,24.00
2022-08-17T08:51:27.679Z,24.10
2022-08-17T08:54:01.252Z,24.30
2022-08-17T08:56:39.551Z,24.30
2022-08-17T08:59:17.244Z,24.30
2022-08-17T09:01:55.618Z,24.20
2022-08-17T09:05:10.301Z,24.20
2022-08-17T09:07:42.275Z,24.10
2022-08-17T09:10:16.945Z,24.10
2022-08-17T09:12:56.169Z,24.20
2022-08-17T09:15:28.926Z,24.20
2022-08-17T09:18:59.409Z,24.20
2022-08-17T09:20:56.880Z,24.30
2022-08-17T09:23:33.439Z,24.30
2022-08-17T09:26:07.742Z,24.40
2022-08-17T09:28:38.089Z,24.50
2022-08-17T09:31:10.299Z,24.60
2022-08-17T09:33:43.486Z,24.70
2022-08-17T09:36:16.828Z,24.90
2022-08-17T09:39:01.250Z,25.00
2022-08-17T09:41:36.642Z,25.10
2022-08-17T09:44:23.103Z,25.10
2022-08-17T09:46:56.847Z,25.30
2022-08-17T09:49:31.372Z,25.30
2022-08-17T09:52:04.375Z,25.30
2022-08-17T09:54:39.941Z,25.40
2022-08-17T09:57:31.612Z,25.40
2022-08-17T10:00:16.084Z,25.50
2022-08-17T10:03:03.011Z,25.50
2022-08-17T10:05:38.298Z,25.50
2022-08-17T10:08:15.042Z,25.40
2022-08-17T10:10:52.402Z,25.50
2022-08-17T10:13:34.745Z,25.60
2022-08-17T10:16:10.018Z,25.70
2022-08-17T10:18:49.571Z,25.70
2022-08-17T10:21:37.451Z,25.80
2022-08-17T10:24:31.126Z,25.80
2022-08-17T10:27:03.551Z,26.00
2022-08-17T10:29:47.357Z,26.10
2022-08-17T10:32:28.598Z,26.20
2022-08-17T10:35:14.474Z,26.30
2022-08-17T10:38:00.965Z,26.20
2022-08-17T10:40:36.499Z,26.10
2022-08-17T10:43:27.727Z,26.10
2022-08-17T10:46:30.308Z,26.10
2022-08-17T10:49:25.952Z,26.10
2022-08-17T10:51:55.794Z,25.90
2022-08-17T10:55:07.889Z,25.90
2022-08-17T10:57:42.199Z,25.90
2022-08-17T11:00:35.040Z,25.90
2022-08-17T11:03:03.376Z,26.10
2022-08-17T11:05:47.034Z,26.40
2022-08-17T11:08:31.307Z,26.50
2022-08-17T11:11:13.923Z,26.80
2022-08-17T11:13:50.104Z,27.20
2022-08-17T11:16:38.951Z,27.40
2022-08-17T11:19:34.454Z,27.70
2022-08-17T11:22:39.511Z,27.80
2022-08-17T11:25:16.884Z,28.10
2022-08-17T11:27:53.651Z,28.40
2022-08-17T11:30:48.616Z,28.70
2022-08-17T11:33:53.840Z,29.00
2022-08-17T11:36:34.017Z,29.40
2022-08-17T11:39:06.562Z,29.90
2022-08-17T11:41:49.063Z,30.30
2022-08-17T11:44:28.625Z,30.40
2022-08-17T11:47:27.314Z,30.80
2022-08-17T11:50:33.343Z,30.80
2022-08-17T11:53:01.476Z,30.80
2022-08-17T11:56:04.293Z,30.40
2022-08-17T11:58:41.191Z,30.00
2022-08-17T12:01:13.618Z,29.40
2022-08-17T12:03:56.075Z,29.50
2022-08-17T12:06:45.722Z,29.60
2022-08-17T12:09:18.359Z,29.70
2022-08-17T12:12:04.669Z,29.80
2022-08-17T12:17:41.586Z,29.80
2022-08-17T12:20:16.107Z,30.10
2022-08-17T12:22:57.475Z,30.10
2022-08-17T12:25:32.900Z,29.90
2022-08-17T12:28:06.872Z,29.80
2022-08-17T12:30:37.327Z,29.60
2022-08-17T12:33:13.310Z,29.50
2022-08-17T12:35:59.610Z,29.30
2022-08-17T12:38:32.531Z,29.30
2022-08-17T12:41:23.259Z,29.30
2022-08-17T12:44:01.605Z,29.30
2022-08-17T12:46:30.630Z,29.40
2022-08-17T12:49:13.237Z,29.70
2022-08-17T12:51:44.598Z,29.80
2022-08-17T12:54:26.452Z,30.20
2022-08-17T12:56:55.096Z,30.80
2022-08-17T12:59:30.092Z,30.10
2022-08-17T13:01:58.840Z,29.90
2022-08-17T13:04:29.505Z,30.10
2022-08-17T13:06:59.998Z,30.00
2022-08-17T13:09:35.971Z,29.90
2022-08-17T13:12:08.630Z,30.00
2022-08-17T13:14:36.699Z,30.00
2022-08-17T13:17:11.083Z,30.00
2022-08-17T13:19:49.179Z,30.10
2022-08-17T13:22:18.425Z,30.40
2022-08-17T13:24:54.323Z,30.70
2022-08-17T13:27:25.016Z,31.20
2022-08-17T13:29:55.340Z,32.50
2022-08-17T13:32:34.237Z,33.90
2022-08-17T13:35:12.516Z,35.30
2022-08-17T13:37:58.882Z,35.80
2022-08-17T13:40:33.492Z,37.30
2022-08-17T13:43:03.238Z,38.40
2022-08-17T13:45:45.843Z,38.30
2022-08-17T13:48:28.655Z,37.30
2022-08-17T13:51:19.187Z,36.50
2022-08-17T13:53:54.879Z,35.30
2022-08-17T13:56:38.681Z,35.60
2022-08-17T13:59:11.512Z,35.10
2022-08-17T14:01:42.090Z,34.80
2022-08-17T14:04:12.342Z,34.30
2022-08-17T14:06:58.927Z,33.90
2022-08-17T14:09:33.570Z,35.10
2022-08-17T14:12:21.593Z,36.30
2022-08-17T14:14:49.602Z,36.80
2022-08-17T14:17:17.759Z,37.60
2022-08-17T14:19:45.871Z,38.70
2022-08-17T14:22:23.628Z,39.60
2022-08-17T14:24:52.476Z,40.20
2022-08-17T14:27:21.911Z,40.70
2022-08-17T14:29:50.243Z,40.60
2022-08-17T14:32:21.181Z,39.50
2022-08-17T14:34:49.881Z,38.80
2022-08-17T14:37:18.235Z,38.10
2022-08-17T14:39:46.270Z,37.60
2022-08-17T14:42:15.444Z,37.20
2022-08-17T14:44:44.673Z,36.80
2022-08-17T14:47:14.854Z,36.50
2022-08-17T14:49:43.645Z,36.30
2022-08-17T14:52:21.620Z,36.40
2022-08-17T14:54:51.189Z,37.00
2022-08-17T14:57:24.905Z,36.40
2022-08-17T15:00:03.774Z,35.60
2022-08-17T15:02:31.741Z,34.90
2022-08-17T15:05:02.471Z,34.40
2022-08-17T15:07:31.268Z,34.00
2022-08-17T15:10:00.509Z,34.80
2022-08-17T15:12:32.724Z,36.20
2022-08-17T15:15:04.644Z,37.80
2022-08-17T15:17:44.617Z,38.80
2022-08-17T15:20:17.047Z,39.20
2022-08-17T15:22:47.033Z,39.50
2022-08-17T15:25:15.492Z,39.10
2022-08-17T15:27:43.980Z,39.40
2022-08-17T15:30:15.069Z,39.60
2022-08-17T15:32:51.225Z,39.70
2022-08-17T15:35:28.097Z,39.50
2022-08-17T15:37:57.415Z,38.10
2022-08-17T15:40:25.404Z,36.80
2022-08-17T15:42:53.636Z,35.70
2022-08-17T15:45:26.337Z,35.00
2022-08-17T15:47:54.329Z,34.30
2022-08-17T15:50:22.517Z,33.90
2022-08-17T15:52:57.868Z,33.40
2022-08-17T15:55:27.040Z,33.30
2022-08-17T15:57:55.677Z,32.90
2022-08-17T16:00:25.972Z,32.70
2022-08-17T16:03:44.413Z,32.50
2022-08-17T16:05:42.346Z,32.30
2022-08-17T16:08:11.058Z,32.10
2022-08-17T16:10:39.286Z,31.90
2022-08-17T16:13:17.425Z,31.90
2022-08-17T16:15:56.649Z,31.80
2022-08-17T16:18:31.282Z,31.50
2022-08-17T16:21:20.382Z,31.40
2022-08-17T16:23:49.107Z,31.40
2022-08-17T16:26:17.164Z,31.20
2022-08-17T16:28:45.344Z,31.10
2022-08-17T16:31:15.600Z,31.00
2022-08-17T16:33:43.822Z,31.10
2022-08-17T16:36:31.680Z,31.10
2022-08-17T16:39:00.561Z,31.00
2022-08-17T16:41:46.515Z,31.00
2022-08-17T16:44:15.794Z,31.00
2022-08-17T16:46:46.057Z,30.90
2022-08-17T16:49:35.706Z,30.80
2022-08-17T16:52:03.924Z,30.80
2022-08-17T16:54:31.849Z,30.70
2022-08-17T16:57:00.144Z,30.70
2022-08-17T16:59:31.136Z,30.80
2022-08-17T17:02:11.057Z,30.80
2022-08-17T17:04:45.400Z,30.70
2022-08-17T17:07:28.005Z,30.70
2022-08-17T17:09:56.691Z,30.70
2022-08-17T17:12:34.856Z,30.60
2022-08-17T17:15:21.881Z,30.60
2022-08-17T17:17:52.467Z,30.60
2022-08-17T17:20:26.202Z,30.60
2022-08-17T17:23:07.988Z,30.50
2022-08-17T17:25:48.915Z,30.40
2022-08-17T17:28:24.833Z,30.40
2022-08-17T17:31:02.148Z,30.30
2022-08-17T17:33:40.214Z,30.30
2022-08-17T17:36:23.852Z,30.20
2022-08-17T17:38:55.187Z,30.20
2022-08-17T17:41:28.904Z,30.20
2022-08-17T17:44:02.784Z,30.20
2022-08-17T17:46:35.135Z,30.10
2022-08-17T17:49:05.838Z,30.00
2022-08-17T17:52:07.231Z,29.90
2022-08-17T17:54:44.743Z,29.80
2022-08-17T17:57:21.244Z,29.80
2022-08-17T17:59:58.146Z,29.70
2022-08-17T18:02:52.615Z,29.60
2022-08-17T18:05:38.603Z,29.50
2022-08-17T18:08:17.956Z,29.50
2022-08-17T18:10:54.736Z,29.40
2022-08-17T18:13:29.091Z,29.30
2022-08-17T18:16:00.714Z,29.30
2022-08-17T18:18:40.624Z,29.30
2022-08-17T18:21:16.654Z,29.20
2022-08-17T18:23:50.801Z,29.10
2022-08-17T18:26:37.570Z,28.90
2022-08-17T18:29:32.088Z,28.80
2022-08-17T18:32:25.123Z,28.80
2022-08-17T18:34:55.387Z,28.60
2022-08-17T18:37:34.653Z,28.50
2022-08-17T18:40:27.442Z,28.40
2022-08-17T18:43:03.745Z,28.40
2022-08-17T18:45:34.366Z,28.40
2022-08-17T18:48:03.197Z,28.30
2022-08-17T18:50:41.205Z,28.30
2022-08-17T18:53:42.515Z,28.20
2022-08-17T18:56:32.043Z,28.10
2022-08-17T18:59:26.880Z,28.10
2022-08-17T19:02:32.532Z,28.00
2022-08-17T19:05:11.605Z,27.90
2022-08-17T19:07:41.241Z,27.90
2022-08-17T19:10:21.583Z,27.80
2022-08-17T19:13:00.198Z,27.80
2022-08-17T19:15:34.310Z,27.70
2022-08-17T19:18:06.720Z,27.70
2022-08-17T19:20:39.455Z,27.60
2022-08-17T19:23:19.690Z,27.50
2022-08-17T19:25:50.903Z,27.50
2022-08-17T19:28:25.609Z,27.50
2022-08-17T19:30:59.359Z,27.40
2022-08-17T19:33:27.674Z,27.40
2022-08-17T19:36:06.072Z,27.30
2022-08-17T19:38:43.140Z,27.30
2022-08-17T19:41:20.204Z,27.20
2022-08-17T19:44:13.818Z,27.20
2022-08-17T19:46:50.617Z,27.10
2022-08-17T19:49:41.507Z,27.00
2022-08-17T19:52:29.024Z,27.00
2022-08-17T19:55:03.327Z,26.90
2022-08-17T19:57:46.618Z,26.90
2022-08-17T20:00:16.995Z,26.80
2022-08-17T20:02:54.630Z,26.80
2022-08-17T20:05:26.486Z,26.70
2022-08-17T20:07:59.208Z,26.70
2022-08-17T20:10:45.190Z,26.60
2022-08-17T20:13:33.474Z,26.50
2022-08-17T20:16:02.579Z,26.50
2022-08-17T20:18:44.086Z,26.40
2022-08-17T20:21:19.904Z,26.40
2022-08-17T20:23:54.007Z,26.30
2022-08-17T20:26:27.196Z,26.30
2022-08-17T20:29:37.251Z,26.30
2022-08-17T20:32:25.066Z,26.20
2022-08-17T20:35:06.467Z,26.20
2022-08-17T20:37:36.046Z,26.20
2022-08-17T20:40:33.502Z,26.10
2022-08-17T20:43:39.747Z,26.00
2022-08-17T20:46:40.267Z,26.00
2022-08-17T20:49:21.791Z,26.00
2022-08-17T20:52:02.430Z,25.90
2022-08-17T20:54:47.546Z,25.90
2022-08-17T20:57:45.537Z,25.70
2022-08-17T21:00:34.340Z,25.60
2022-08-17T21:03:50.162Z,25.70
2022-08-17T21:06:23.926Z,25.70
2022-08-17T21:08:57.587Z,25.50
2022-08-17T21:12:02.979Z,25.30
2022-08-17T21:14:57.961Z,25.20
2022-08-17T21:17:49.275Z,25.10
2022-08-17T21:20:32.350Z,25.10
2022-08-17T21:23:31.345Z,25.10
2022-08-17T21:26:20.851Z,25.10
2022-08-17T21:29:31.359Z,25.20
